Myra, West Virginia
Current Conditions -  °F | °C
As of 6:51 AM on Sunday 25 Jan 2015 (Local Time) from KHTS Reporting Station
Clear Clear  
Wind Chill: 29°   Ceiling: Unl
Heat Index: 34°   Visibility: 8mi
Dew Point: 31°   Wind: 6mph
Humidity: 89%   Direction: 210°SSW
Pressure: 29.79"   Gusts: NA
Location:  38.22°N, 82.11°W
Report Text: KHTS 251151Z 21005KT 8SM CLR 01/M01 A2979 RMK AO2 SLP092 70002 T00111006 10011 21006 55007
Loading
Personal Weather Stations






























Interactive Weather Map New forecast layout! Learn more

10-Day Weather Forecast

Advertisements
Track Severe Weather on mobile